createdAt,value
2023-01-12T00:00:07.043Z,4.48
2023-01-12T00:01:07.991Z,4.22
2023-01-12T00:02:07.464Z,4.41
2023-01-12T00:03:04.569Z,3.61
2023-01-12T00:04:03.174Z,4.61
2023-01-12T00:04:59.981Z,4.57
2023-01-12T00:06:00.948Z,4.61
2023-01-12T00:06:59.594Z,4.50
2023-01-12T00:07:56.385Z,4.60
2023-01-12T00:08:54.518Z,4.59
2023-01-12T00:09:54.431Z,4.79
2023-01-12T00:10:55.934Z,4.13
2023-01-12T00:11:58.201Z,4.29
2023-01-12T00:12:54.998Z,3.77
2023-01-12T00:13:51.763Z,4.67
2023-01-12T00:14:48.796Z,2.68
2023-01-12T00:16:06.942Z,4.66
2023-01-12T00:17:04.246Z,4.34
2023-01-12T00:18:00.985Z,3.97
2023-01-12T00:19:00.393Z,4.01
2023-01-12T00:19:57.127Z,4.00
2023-01-12T00:20:53.928Z,4.57
2023-01-12T00:22:00.425Z,3.48
2023-01-12T00:22:58.261Z,3.99
2023-01-12T00:23:56.290Z,4.09
2023-01-12T00:24:55.028Z,4.43
2023-01-12T00:25:53.058Z,4.33
2023-01-12T00:26:49.982Z,3.27
2023-01-12T00:27:49.437Z,3.27
2023-01-12T00:28:46.429Z,4.29
2023-01-12T00:29:43.668Z,4.86
2023-01-12T00:30:40.497Z,4.96
2023-01-12T00:31:37.336Z,3.82
2023-01-12T00:32:34.167Z,4.50
2023-01-12T00:33:31.009Z,3.80
2023-01-12T00:34:29.672Z,4.78
2023-01-12T00:35:26.705Z,3.26
2023-01-12T00:36:23.556Z,4.59
2023-01-12T00:37:20.349Z,4.52
2023-01-12T00:38:17.187Z,0.96
2023-01-12T00:39:15.175Z,4.41
2023-01-12T00:40:12.365Z,4.66
2023-01-12T00:41:12.232Z,4.56
2023-01-12T00:42:27.768Z,4.28
2023-01-12T00:43:43.040Z,4.57
2023-01-12T00:44:58.595Z,4.65
2023-01-12T00:45:55.501Z,3.32
2023-01-12T00:46:52.433Z,4.03
2023-01-12T00:47:49.163Z,3.61
2023-01-12T00:48:45.930Z,4.30
2023-01-12T00:49:44.924Z,3.26
2023-01-12T00:50:41.780Z,2.92
2023-01-12T00:51:38.670Z,4.55
2023-01-12T00:52:35.537Z,4.45
2023-01-12T00:53:32.401Z,4.30
2023-01-12T00:54:29.205Z,4.44
2023-01-12T00:55:25.979Z,2.16
2023-01-12T00:56:23.081Z,3.99
2023-01-12T00:57:19.972Z,4.06
2023-01-12T00:58:16.771Z,4.22
2023-01-12T00:59:13.621Z,3.80
2023-01-12T01:00:11.195Z,3.69
2023-01-12T01:01:09.455Z,4.23
2023-01-12T01:02:06.894Z,4.44
2023-01-12T01:03:03.777Z,3.21
2023-01-12T01:04:00.944Z,4.69
2023-01-12T01:04:57.725Z,4.38
2023-01-12T01:06:03.459Z,4.26
2023-01-12T01:07:00.677Z,4.20
2023-01-12T01:07:57.566Z,3.79
2023-01-12T01:08:54.376Z,4.08
2023-01-12T01:09:52.109Z,4.14
2023-01-12T01:10:48.834Z,3.55
2023-01-12T01:11:45.594Z,4.15
2023-01-12T01:12:42.710Z,4.33
2023-01-12T01:13:45.857Z,3.42
2023-01-12T01:14:42.938Z,3.58
2023-01-12T01:15:39.712Z,4.22
2023-01-12T01:16:36.710Z,3.15
2023-01-12T01:17:34.139Z,4.29
2023-01-12T01:18:32.522Z,4.03
2023-01-12T01:19:29.318Z,4.46
2023-01-12T01:20:26.139Z,4.50
2023-01-12T01:21:23.178Z,3.65
2023-01-12T01:22:22.025Z,4.19
2023-01-12T01:23:18.935Z,3.76
2023-01-12T01:24:15.762Z,4.36
2023-01-12T01:25:12.713Z,3.63
2023-01-12T01:26:13.359Z,3.47
2023-01-12T01:27:13.181Z,4.40
2023-01-12T01:28:10.044Z,3.55
2023-01-12T01:29:07.428Z,4.32
2023-01-12T01:30:04.729Z,3.43
2023-01-12T01:31:07.457Z,4.65
2023-01-12T01:32:04.852Z,3.26
2023-01-12T01:33:01.852Z,4.49
2023-01-12T01:33:58.606Z,3.61
2023-01-12T01:34:55.407Z,4.10
2023-01-12T01:35:52.247Z,4.61
2023-01-12T01:36:49.119Z,4.57
2023-01-12T01:37:48.261Z,3.91
2023-01-12T01:38:46.740Z,3.27
2023-01-12T01:39:43.530Z,4.13
2023-01-12T01:40:43.452Z,4.61
2023-01-12T01:41:42.792Z,3.84
2023-01-12T01:42:41.357Z,4.40
2023-01-12T01:43:56.987Z,2.75
2023-01-12T01:44:56.934Z,4.74
2023-01-12T01:46:06.842Z,3.73
2023-01-12T01:47:06.727Z,4.79
2023-01-12T01:48:03.828Z,4.12
2023-01-12T01:49:26.853Z,4.35
2023-01-12T01:50:29.795Z,4.21
2023-01-12T01:51:26.763Z,4.65
2023-01-12T01:52:32.893Z,3.99
2023-01-12T01:53:34.437Z,4.57
2023-01-12T01:54:41.295Z,2.01
2023-01-12T01:55:53.275Z,3.52
2023-01-12T01:56:57.310Z,3.44
2023-01-12T01:58:10.418Z,3.25
2023-01-12T01:59:17.984Z,4.16
2023-01-12T02:00:15.714Z,4.71
2023-01-12T02:01:12.507Z,3.63
2023-01-12T02:02:09.593Z,2.61
2023-01-12T02:03:11.251Z,3.70
2023-01-12T02:04:08.923Z,2.23
2023-01-12T02:05:06.588Z,3.43
2023-01-12T02:06:06.718Z,4.14
2023-01-12T02:07:07.018Z,4.12
2023-01-12T02:08:31.138Z,4.19
2023-01-12T02:09:28.385Z,2.07
2023-01-12T02:10:25.242Z,2.53
2023-01-12T02:11:41.130Z,3.80
2023-01-12T02:12:57.416Z,4.18
2023-01-12T02:14:12.610Z,2.52
2023-01-12T02:15:28.468Z,3.11
2023-01-12T02:16:32.032Z,4.04
2023-01-12T02:18:14.119Z,4.33
2023-01-12T02:19:32.270Z,4.51
2023-01-12T02:21:06.623Z,3.97
2023-01-12T02:22:28.488Z,4.53
2023-01-12T02:23:59.382Z,4.29
2023-01-12T02:25:17.341Z,3.79
2023-01-12T02:26:36.815Z,3.88
2023-01-12T02:27:57.835Z,3.18
2023-01-12T02:29:38.877Z,4.06
2023-01-12T02:31:23.063Z,3.93
2023-01-12T02:32:49.261Z,1.85
2023-01-12T02:33:54.709Z,3.76
2023-01-12T02:35:15.467Z,4.13
2023-01-12T02:36:25.274Z,3.80
2023-01-12T02:37:40.230Z,4.08
2023-01-12T02:38:49.887Z,3.42
2023-01-12T02:40:03.543Z,3.30
2023-01-12T02:41:13.998Z,3.24
2023-01-12T02:42:47.653Z,3.89
2023-01-12T02:43:45.963Z,3.96
2023-01-12T02:45:08.760Z,3.76
2023-01-12T02:46:28.833Z,3.92
2023-01-12T02:47:55.149Z,3.77
2023-01-12T02:48:59.528Z,3.69
2023-01-12T02:50:02.473Z,4.39
2023-01-12T02:51:19.649Z,4.10
2023-01-12T02:52:21.735Z,3.21
2023-01-12T02:53:36.218Z,3.98
2023-01-12T02:54:37.234Z,2.12
2023-01-12T02:55:35.318Z,2.19
2023-01-12T02:56:36.478Z,3.60
2023-01-12T02:57:35.799Z,4.36
2023-01-12T02:58:39.107Z,4.30
2023-01-12T02:59:41.515Z,3.48
2023-01-12T03:00:42.837Z,4.19
2023-01-12T03:01:42.394Z,4.19
2023-01-12T03:02:39.352Z,4.13
2023-01-12T03:03:39.770Z,4.14
2023-01-12T03:04:37.363Z,3.57
2023-01-12T03:05:34.155Z,4.06
2023-01-12T03:06:56.755Z,4.29
2023-01-12T03:08:00.400Z,2.71
2023-01-12T03:08:57.516Z,3.97
2023-01-12T03:10:19.982Z,3.12
2023-01-12T03:11:20.683Z,2.16
2023-01-12T03:12:27.081Z,3.06
2023-01-12T03:13:27.721Z,3.64
2023-01-12T03:14:27.667Z,3.95
2023-01-12T03:15:26.456Z,4.36
2023-01-12T03:16:35.497Z,4.39
2023-01-12T03:17:52.560Z,4.29
2023-01-12T03:19:00.607Z,4.42
2023-01-12T03:20:07.185Z,3.24
2023-01-12T03:21:27.084Z,4.14
2023-01-12T03:22:24.541Z,2.75
2023-01-12T03:23:29.906Z,4.22
2023-01-12T03:24:32.781Z,2.63
2023-01-12T03:25:33.725Z,4.23
2023-01-12T03:26:34.192Z,4.03
2023-01-12T03:27:41.105Z,3.87
2023-01-12T03:28:45.391Z,4.21
2023-01-12T03:29:59.992Z,4.13
2023-01-12T03:31:13.251Z,4.02
2023-01-12T03:32:10.767Z,4.46
2023-01-12T03:33:09.269Z,4.00
2023-01-12T03:34:06.220Z,4.51
2023-01-12T03:35:05.599Z,4.02
2023-01-12T03:36:09.207Z,4.18
2023-01-12T03:37:40.407Z,2.27
2023-01-12T03:38:46.837Z,3.17
2023-01-12T03:40:03.756Z,3.84
2023-01-12T03:41:10.791Z,4.26
2023-01-12T03:42:10.409Z,4.58
2023-01-12T03:43:15.585Z,4.51
2023-01-12T03:44:28.852Z,4.49
2023-01-12T03:45:31.614Z,4.45
2023-01-12T03:46:46.635Z,4.40
2023-01-12T03:47:44.546Z,4.00
2023-01-12T03:48:59.996Z,3.36
2023-01-12T03:50:07.313Z,3.26
2023-01-12T03:51:17.216Z,2.86
2023-01-12T03:52:15.818Z,4.46
2023-01-12T03:53:18.239Z,4.32
2023-01-12T03:54:18.428Z,3.21
2023-01-12T03:55:19.534Z,3.70
2023-01-12T03:56:20.381Z,4.09
2023-01-12T03:57:17.971Z,3.96
2023-01-12T03:58:16.836Z,4.46
2023-01-12T03:59:14.956Z,3.90
2023-01-12T04:00:14.856Z,4.12
2023-01-12T04:01:11.964Z,4.01
2023-01-12T04:02:09.997Z,4.16
2023-01-12T04:03:11.479Z,2.89
2023-01-12T04:04:08.280Z,3.78
2023-01-12T04:05:08.864Z,2.98
2023-01-12T04:06:05.973Z,4.35
2023-01-12T04:07:02.814Z,4.16
2023-01-12T04:07:59.701Z,0.84
2023-01-12T04:08:56.583Z,3.21
2023-01-12T04:09:53.411Z,4.23
2023-01-12T04:10:50.358Z,3.88
2023-01-12T04:12:05.748Z,3.99
2023-01-12T04:13:02.754Z,4.34
2023-01-12T04:13:59.584Z,4.35
2023-01-12T04:14:56.475Z,3.77
2023-01-12T04:15:53.229Z,3.96
2023-01-12T04:16:49.987Z,4.13
2023-01-12T04:17:46.888Z,3.90
2023-01-12T04:18:43.736Z,1.55
2023-01-12T04:19:40.866Z,3.75
2023-01-12T04:20:39.252Z,4.44
2023-01-12T04:21:54.566Z,4.46
2023-01-12T04:22:51.354Z,4.05
2023-01-12T04:23:48.059Z,4.50
2023-01-12T04:24:44.871Z,4.61
2023-01-12T04:25:41.652Z,4.80
2023-01-12T04:26:38.428Z,3.93
2023-01-12T04:27:35.237Z,4.79
2023-01-12T04:28:32.063Z,4.80
2023-01-12T04:29:28.908Z,3.44
2023-01-12T04:30:27.884Z,4.25
2023-01-12T04:31:24.768Z,3.48
2023-01-12T04:32:24.226Z,4.22
2023-01-12T04:33:21.003Z,3.54
2023-01-12T04:34:17.751Z,3.88
2023-01-12T04:35:16.524Z,4.52
2023-01-12T04:36:14.077Z,4.19
2023-01-12T04:37:10.824Z,4.43
2023-01-12T04:38:10.156Z,4.21
2023-01-12T04:39:06.995Z,4.38
2023-01-12T04:40:04.812Z,4.64
2023-01-12T04:41:01.791Z,3.69
2023-01-12T04:41:58.620Z,4.51
2023-01-12T04:43:07.990Z,4.29
2023-01-12T04:44:05.220Z,3.97
2023-01-12T04:45:02.120Z,3.45
2023-01-12T04:45:58.853Z,4.75
2023-01-12T04:46:55.674Z,3.51
2023-01-12T04:47:52.407Z,4.24
2023-01-12T04:48:49.187Z,4.60
2023-01-12T04:49:45.904Z,4.10
2023-01-12T04:50:44.445Z,3.88
2023-01-12T04:51:41.834Z,3.56
2023-01-12T04:52:38.877Z,3.41
2023-01-12T04:53:35.782Z,4.08
2023-01-12T04:54:32.546Z,4.62
2023-01-12T04:55:29.867Z,3.64
2023-01-12T04:56:26.811Z,4.11
2023-01-12T04:57:23.659Z,4.78
2023-01-12T04:58:20.588Z,4.20
2023-01-12T04:59:17.631Z,3.32
2023-01-12T05:00:15.469Z,3.81
2023-01-12T05:01:18.292Z,4.64
2023-01-12T05:02:15.331Z,4.81
2023-01-12T05:03:13.896Z,3.33
2023-01-12T05:04:10.688Z,4.22
2023-01-12T05:05:09.151Z,4.39
2023-01-12T05:06:06.249Z,4.36
2023-01-12T05:07:03.145Z,4.16
2023-01-12T05:08:20.676Z,4.64
2023-01-12T05:09:36.199Z,4.39
2023-01-12T05:10:32.989Z,4.26
2023-01-12T05:11:30.383Z,3.20
2023-01-12T05:12:27.246Z,3.69
2023-01-12T05:13:27.143Z,4.50
2023-01-12T05:14:23.896Z,2.30
2023-01-12T05:15:20.692Z,1.52
2023-01-12T05:16:18.425Z,3.46
2023-01-12T05:17:15.562Z,4.69
2023-01-12T05:18:12.509Z,2.33
2023-01-12T05:19:09.531Z,4.49
2023-01-12T05:20:06.938Z,4.58
2023-01-12T05:21:04.514Z,3.68
2023-01-12T05:22:01.256Z,3.84
2023-01-12T05:22:58.010Z,4.22
2023-01-12T05:23:54.787Z,3.34
2023-01-12T05:24:51.609Z,3.54
2023-01-12T05:25:48.318Z,4.21
2023-01-12T05:26:45.229Z,2.65
2023-01-12T05:27:42.127Z,3.37
2023-01-12T05:28:39.244Z,3.65
2023-01-12T05:29:36.080Z,4.15
2023-01-12T05:30:32.846Z,2.13
2023-01-12T05:31:29.684Z,4.39
2023-01-12T05:32:27.067Z,4.26
2023-01-12T05:33:23.891Z,4.48
2023-01-12T05:34:20.842Z,4.27
2023-01-12T05:35:17.637Z,3.12
2023-01-12T05:36:16.324Z,3.15
2023-01-12T05:37:13.076Z,4.48
2023-01-12T05:38:09.825Z,3.38
2023-01-12T05:39:06.710Z,4.57
2023-01-12T05:40:04.229Z,4.70
2023-01-12T05:41:02.401Z,1.27
2023-01-12T05:42:17.943Z,4.39
2023-01-12T05:43:33.383Z,4.14
2023-01-12T05:44:30.159Z,4.34
2023-01-12T05:45:26.990Z,4.41
2023-01-12T05:46:27.392Z,4.29
2023-01-12T05:47:24.165Z,4.77
2023-01-12T05:48:20.987Z,4.72
2023-01-12T05:49:17.753Z,4.16
2023-01-12T05:50:14.559Z,4.47
2023-01-12T05:51:13.682Z,4.44
2023-01-12T05:52:10.535Z,4.56
2023-01-12T05:53:07.685Z,3.20
2023-01-12T05:54:04.572Z,4.31
2023-01-12T05:55:01.596Z,4.45
2023-01-12T05:55:59.721Z,3.49
2023-01-12T05:56:56.564Z,3.81
2023-01-12T05:57:53.335Z,4.49
2023-01-12T05:58:55.209Z,4.61
2023-01-12T05:59:51.938Z,4.04
2023-01-12T06:00:48.770Z,4.37
2023-01-12T06:01:45.497Z,4.65
2023-01-12T06:02:42.227Z,3.78
2023-01-12T06:03:39.146Z,4.25
2023-01-12T06:04:36.003Z,4.74
2023-01-12T06:05:32.820Z,4.72
2023-01-12T06:06:31.708Z,5.02
2023-01-12T06:07:28.470Z,4.44
2023-01-12T06:08:25.643Z,4.74
2023-01-12T06:09:22.434Z,4.70
2023-01-12T06:10:19.410Z,4.82
2023-01-12T06:11:34.888Z,4.59
2023-01-12T06:12:51.021Z,4.48
2023-01-12T06:13:57.040Z,4.10
2023-01-12T06:14:53.751Z,3.70
2023-01-12T06:15:50.589Z,4.32
2023-01-12T06:16:47.590Z,3.39
2023-01-12T06:17:44.442Z,3.88
2023-01-12T06:18:41.666Z,3.70
2023-01-12T06:19:39.069Z,3.53
2023-01-12T06:20:36.088Z,3.81
2023-01-12T06:21:34.290Z,3.80
2023-01-12T06:22:31.456Z,2.07
2023-01-12T06:23:35.315Z,2.56
2023-01-12T06:24:32.671Z,4.08
2023-01-12T06:25:30.142Z,4.40
2023-01-12T06:26:26.980Z,4.14
2023-01-12T06:27:23.888Z,4.48
2023-01-12T06:28:21.403Z,3.80
2023-01-12T06:29:18.115Z,4.48
2023-01-12T06:30:14.930Z,4.19
2023-01-12T06:31:13.820Z,3.95
2023-01-12T06:32:10.959Z,3.91
2023-01-12T06:33:07.772Z,4.39
2023-01-12T06:34:04.771Z,3.49
2023-01-12T06:35:14.018Z,3.25
2023-01-12T06:36:15.299Z,4.08
2023-01-12T06:37:13.097Z,3.70
2023-01-12T06:38:09.960Z,3.25
2023-01-12T06:39:06.994Z,4.11
2023-01-12T06:40:06.588Z,4.54
2023-01-12T06:41:05.657Z,4.59
2023-01-12T06:42:23.636Z,3.27
2023-01-12T06:43:20.509Z,4.21
2023-01-12T06:44:17.293Z,3.41
2023-01-12T06:45:14.314Z,4.38
2023-01-12T06:46:11.315Z,3.92
2023-01-12T06:47:08.159Z,4.19
2023-01-12T06:48:05.278Z,4.14
2023-01-12T06:49:02.087Z,4.38
2023-01-12T06:49:59.526Z,4.34
2023-01-12T06:51:05.251Z,4.44
2023-01-12T06:52:02.486Z,3.52
2023-01-12T06:53:00.234Z,2.83
2023-01-12T06:53:57.100Z,2.99
2023-01-12T06:54:55.106Z,3.77
2023-01-12T06:55:51.947Z,3.48
2023-01-12T06:56:49.011Z,4.13
2023-01-12T06:57:46.188Z,3.97
2023-01-12T06:58:43.896Z,3.03
2023-01-12T06:59:43.453Z,4.19
2023-01-12T07:00:40.429Z,4.24
2023-01-12T07:01:37.367Z,3.59
2023-01-12T07:02:37.765Z,4.27
2023-01-12T07:03:34.714Z,3.86
2023-01-12T07:04:31.730Z,3.79
2023-01-12T07:05:28.621Z,3.40
2023-01-12T07:06:25.394Z,4.91
2023-01-12T07:07:22.409Z,4.30
2023-01-12T07:08:20.002Z,5.11
2023-01-12T07:09:16.834Z,5.05
2023-01-12T07:10:13.925Z,2.88
2023-01-12T07:11:15.202Z,4.22
2023-01-12T07:12:12.046Z,4.93
2023-01-12T07:13:08.926Z,4.42
2023-01-12T07:14:08.364Z,5.11
2023-01-12T07:15:06.866Z,4.79
2023-01-12T07:16:03.792Z,5.19
2023-01-12T07:17:00.786Z,5.35
2023-01-12T07:17:58.221Z,4.61
2023-01-12T07:18:55.157Z,4.96
2023-01-12T07:19:52.124Z,5.22
2023-01-12T07:20:49.066Z,5.06
2023-01-12T07:21:45.787Z,5.05
2023-01-12T07:22:42.628Z,3.79
2023-01-12T07:23:42.163Z,4.42
2023-01-12T07:24:39.157Z,3.54
2023-01-12T07:25:36.443Z,4.75
2023-01-12T07:26:33.704Z,4.45
2023-01-12T07:27:30.562Z,4.93
2023-01-12T07:28:28.120Z,3.91
2023-01-12T07:29:25.544Z,2.67
2023-01-12T07:30:23.866Z,4.60
2023-01-12T07:31:20.793Z,5.09
2023-01-12T07:32:17.665Z,4.93
2023-01-12T07:33:18.511Z,5.22
2023-01-12T07:34:15.691Z,4.81
2023-01-12T07:35:16.223Z,4.95
2023-01-12T07:36:13.435Z,4.98
2023-01-12T07:37:10.315Z,4.81
2023-01-12T07:38:09.956Z,5.40
2023-01-12T07:39:07.606Z,5.40
2023-01-12T07:40:04.952Z,4.59
2023-01-12T07:41:05.425Z,3.75
2023-01-12T07:42:21.195Z,3.15
2023-01-12T07:43:21.384Z,4.81
2023-01-12T07:44:18.209Z,3.12
2023-01-12T07:45:15.211Z,5.18
2023-01-12T07:46:14.593Z,4.77
2023-01-12T07:47:11.726Z,2.24
2023-01-12T07:48:08.776Z,3.47
2023-01-12T07:49:05.795Z,5.11
2023-01-12T07:50:03.937Z,4.42
2023-01-12T07:51:00.779Z,5.36
2023-01-12T07:51:57.626Z,5.44
2023-01-12T07:52:54.837Z,5.33
2023-01-12T07:53:51.684Z,4.77
2023-01-12T07:54:48.472Z,5.60
2023-01-12T07:55:45.364Z,5.04
2023-01-12T07:56:44.237Z,3.99
2023-01-12T07:57:41.427Z,5.37
2023-01-12T07:58:38.287Z,4.96
2023-01-12T07:59:35.150Z,4.46
2023-01-12T08:00:32.129Z,5.52
2023-01-12T08:01:29.541Z,5.17
2023-01-12T08:02:27.663Z,4.79
2023-01-12T08:03:24.595Z,2.46
2023-01-12T08:04:24.262Z,1.68
2023-01-12T08:05:22.994Z,3.07
2023-01-12T08:06:25.100Z,2.87
2023-01-12T08:07:22.109Z,3.29
2023-01-12T08:08:19.521Z,3.59
2023-01-12T08:09:19.304Z,5.18
2023-01-12T08:10:16.722Z,5.42
2023-01-12T08:11:13.597Z,4.59
2023-01-12T08:12:10.628Z,2.94
2023-01-12T08:13:09.723Z,2.13
2023-01-12T08:14:06.833Z,5.12
2023-01-12T08:15:04.569Z,2.89
2023-01-12T08:16:19.973Z,4.60
2023-01-12T08:17:23.973Z,4.33
2023-01-12T08:18:30.446Z,4.45
2023-01-12T08:19:38.851Z,3.59
2023-01-12T08:20:37.350Z,5.28
2023-01-12T08:21:45.356Z,3.41
2023-01-12T08:22:47.678Z,3.67
2023-01-12T08:23:53.514Z,4.31
2023-01-12T08:25:01.226Z,4.99
2023-01-12T08:26:02.716Z,4.89
2023-01-12T08:27:04.010Z,4.97
2023-01-12T08:28:06.927Z,3.95
2023-01-12T08:29:14.793Z,4.36
2023-01-12T08:30:16.106Z,4.88
2023-01-12T08:32:22.765Z,5.70
2023-01-12T08:33:20.595Z,5.76
2023-01-12T08:34:48.304Z,5.07
2023-01-12T08:35:47.031Z,4.90
2023-01-12T08:36:44.642Z,4.53
2023-01-12T08:37:41.594Z,5.53
2023-01-12T08:38:39.726Z,5.82
2023-01-12T08:39:37.056Z,4.97
2023-01-12T08:40:52.674Z,4.13
2023-01-12T08:41:49.605Z,4.27
2023-01-12T08:42:46.495Z,5.46
2023-01-12T08:44:01.833Z,3.78
2023-01-12T08:44:58.637Z,4.70
2023-01-12T08:45:55.390Z,5.36
2023-01-12T08:46:54.118Z,5.31
2023-01-12T08:47:54.000Z,5.14
2023-01-12T08:48:50.870Z,4.57
2023-01-12T08:49:48.111Z,5.15
2023-01-12T08:50:44.907Z,4.05
2023-01-12T08:51:43.431Z,4.87
2023-01-12T08:52:40.361Z,4.32
2023-01-12T08:53:40.319Z,5.12
2023-01-12T08:54:37.108Z,5.39
2023-01-12T08:55:33.876Z,5.21
2023-01-12T08:56:31.012Z,4.97
2023-01-12T08:57:27.936Z,5.15
2023-01-12T08:58:29.841Z,5.51
2023-01-12T08:59:26.655Z,4.97
2023-01-12T09:00:23.518Z,5.18
2023-01-12T09:01:22.035Z,5.42
2023-01-12T09:02:19.115Z,5.78
2023-01-12T09:03:15.969Z,5.57
2023-01-12T09:04:12.771Z,2.62
2023-01-12T09:05:09.594Z,5.72
2023-01-12T09:06:25.428Z,4.28
2023-01-12T09:07:22.356Z,5.85
2023-01-12T09:08:19.275Z,5.45
2023-01-12T09:09:22.429Z,4.96
2023-01-12T09:10:19.274Z,5.58
2023-01-12T09:11:16.251Z,3.88
2023-01-12T09:12:13.045Z,5.06
2023-01-12T09:13:11.966Z,5.38
2023-01-12T09:14:10.332Z,5.81
2023-01-12T09:15:07.662Z,5.83
2023-01-12T09:16:13.158Z,5.55
2023-01-12T09:17:10.498Z,5.58
2023-01-12T09:18:07.357Z,5.17
2023-01-12T09:19:04.912Z,5.73
2023-01-12T09:20:02.155Z,5.23
2023-01-12T09:21:26.634Z,6.03
2023-01-12T09:22:24.147Z,5.78
2023-01-12T09:23:21.018Z,6.23
2023-01-12T09:24:18.061Z,4.67
2023-01-12T09:25:14.888Z,4.74
2023-01-12T09:26:17.614Z,5.48
2023-01-12T09:27:14.397Z,5.24
2023-01-12T09:28:11.258Z,5.45
2023-01-12T09:29:11.133Z,5.00
2023-01-12T09:30:08.834Z,2.00
2023-01-12T09:31:09.035Z,4.59
2023-01-12T09:32:06.265Z,4.34
2023-01-12T09:33:03.712Z,4.94
2023-01-12T09:34:00.903Z,5.28
2023-01-12T09:34:59.709Z,5.81
2023-01-12T09:36:05.549Z,5.25
2023-01-12T09:37:02.403Z,5.94
2023-01-12T09:37:59.209Z,4.94
2023-01-12T09:38:56.465Z,5.54
2023-01-12T09:39:53.298Z,5.53
2023-01-12T09:40:50.313Z,5.90
2023-01-12T09:42:07.809Z,6.00
2023-01-12T09:43:23.539Z,5.84
2023-01-12T09:44:57.344Z,5.79
2023-01-12T09:46:13.085Z,5.84
2023-01-12T09:47:32.795Z,5.94
2023-01-12T09:48:30.946Z,5.44
2023-01-12T09:49:35.657Z,5.91
2023-01-12T09:50:39.589Z,5.88
2023-01-12T09:51:49.714Z,4.44
2023-01-12T09:52:50.328Z,5.46
2023-01-12T09:53:47.489Z,5.74
2023-01-12T09:54:49.642Z,3.40
2023-01-12T09:55:52.433Z,6.12
2023-01-12T09:57:28.335Z,6.26
2023-01-12T09:58:31.672Z,5.62
2023-01-12T09:59:38.298Z,5.83
2023-01-12T10:00:37.680Z,5.91
2023-01-12T10:01:37.221Z,4.75
2023-01-12T10:02:38.165Z,5.92
2023-01-12T10:03:38.937Z,6.11
2023-01-12T10:04:37.808Z,5.18
2023-01-12T10:05:40.013Z,5.98
2023-01-12T10:06:37.140Z,5.62
2023-01-12T10:07:35.414Z,5.79
2023-01-12T10:08:42.313Z,5.29
2023-01-12T10:09:39.794Z,5.67
2023-01-12T10:10:36.702Z,6.10
2023-01-12T10:11:36.326Z,6.17
2023-01-12T10:12:44.941Z,5.84
2023-01-12T10:13:52.277Z,5.04
2023-01-12T10:15:20.694Z,2.64
2023-01-12T10:16:35.043Z,5.42
2023-01-12T10:17:50.412Z,5.77
2023-01-12T10:18:54.672Z,4.83
2023-01-12T10:20:05.871Z,5.99
2023-01-12T10:21:03.264Z,5.32
2023-01-12T10:22:11.948Z,4.88
2023-01-12T10:23:19.469Z,4.82
2023-01-12T10:24:21.406Z,4.51
2023-01-12T10:25:33.249Z,5.88
2023-01-12T10:26:46.079Z,5.41
2023-01-12T10:27:45.961Z,6.09
2023-01-12T10:28:46.955Z,4.71
2023-01-12T10:29:43.965Z,5.89
2023-01-12T10:30:42.431Z,5.91
2023-01-12T10:31:39.630Z,5.01
2023-01-12T10:32:41.927Z,4.50
2023-01-12T10:33:41.341Z,5.85
2023-01-12T10:34:52.241Z,5.58
2023-01-12T10:35:54.387Z,5.27
2023-01-12T10:36:58.863Z,4.82
2023-01-12T10:37:56.858Z,4.98
2023-01-12T10:38:57.899Z,6.08
2023-01-12T10:39:55.534Z,4.17
2023-01-12T10:41:17.187Z,5.83
2023-01-12T10:42:39.086Z,6.01
2023-01-12T10:43:37.251Z,5.13
2023-01-12T10:44:34.053Z,6.15
2023-01-12T10:45:30.946Z,5.46
2023-01-12T10:46:32.597Z,5.78
2023-01-12T10:47:34.474Z,6.21
2023-01-12T10:48:33.322Z,5.75
2023-01-12T10:49:30.403Z,5.31
2023-01-12T10:51:34.046Z,6.05
2023-01-12T10:52:40.359Z,5.83
2023-01-12T10:53:46.403Z,6.26
2023-01-12T10:54:49.574Z,6.41
2023-01-12T10:55:53.760Z,6.54
2023-01-12T10:57:22.051Z,3.14
2023-01-12T10:58:27.735Z,5.79
2023-01-12T10:59:37.998Z,6.07
2023-01-12T11:00:35.682Z,3.40
2023-01-12T11:01:48.155Z,4.81
2023-01-12T11:02:45.530Z,4.75
2023-01-12T11:03:42.535Z,4.70
2023-01-12T11:04:47.846Z,4.07
2023-01-12T11:05:44.855Z,6.49
2023-01-12T11:06:57.542Z,5.16
2023-01-12T11:07:54.481Z,5.13
2023-01-12T11:10:30.246Z,5.07
2023-01-12T11:11:27.019Z,6.60
2023-01-12T11:12:32.745Z,6.97
2023-01-12T11:13:37.561Z,5.52
2023-01-12T11:14:39.677Z,6.17
2023-01-12T11:15:39.283Z,5.58
2023-01-12T11:16:53.050Z,5.83
2023-01-12T11:17:58.745Z,6.37
2023-01-12T11:19:39.849Z,6.54
2023-01-12T11:21:02.875Z,6.52
2023-01-12T11:22:11.419Z,6.61
2023-01-12T11:23:20.717Z,5.83
2023-01-12T11:24:31.059Z,5.99
2023-01-12T11:25:36.360Z,6.27
2023-01-12T11:26:44.044Z,5.19
2023-01-12T11:27:47.729Z,6.12
2023-01-12T11:28:53.259Z,5.87
2023-01-12T11:30:00.660Z,5.53
2023-01-12T11:31:25.914Z,6.07
2023-01-12T11:32:50.338Z,6.60
2023-01-12T11:34:01.043Z,6.25
2023-01-12T11:35:06.868Z,5.93
2023-01-12T11:36:14.897Z,6.39
2023-01-12T11:37:20.269Z,6.35
2023-01-12T11:38:20.912Z,6.33
2023-01-12T11:39:24.095Z,6.65
2023-01-12T11:40:28.318Z,6.82
2023-01-12T11:41:44.633Z,6.99
2023-01-12T11:43:10.552Z,6.99
2023-01-12T11:44:33.401Z,7.04
2023-01-12T11:45:44.463Z,7.17
2023-01-12T11:47:00.803Z,5.98
2023-01-12T11:48:16.105Z,5.91
2023-01-12T11:49:17.884Z,6.72
2023-01-12T11:50:24.804Z,6.55
2023-01-12T11:51:23.623Z,6.34
2023-01-12T11:52:21.206Z,6.54
2023-01-12T11:53:24.066Z,6.63
2023-01-12T11:54:20.911Z,6.31
2023-01-12T11:55:27.942Z,6.89
2023-01-12T11:56:36.903Z,7.17
2023-01-12T11:57:36.571Z,7.09
2023-01-12T11:58:45.300Z,6.59
2023-01-12T12:00:12.390Z,6.79
2023-01-12T12:01:43.452Z,6.11
2023-01-12T12:03:03.716Z,6.51
2023-01-12T12:04:06.962Z,6.34
2023-01-12T12:05:28.639Z,6.72
2023-01-12T12:09:44.679Z,3.91
2023-01-12T12:10:57.539Z,4.47
2023-01-12T12:12:14.401Z,5.77
2023-01-12T12:13:29.675Z,6.39
2023-01-12T12:14:47.475Z,6.48
2023-01-12T12:15:59.255Z,6.68
2023-01-12T12:17:10.622Z,5.54
2023-01-12T12:18:20.117Z,5.06
2023-01-12T12:19:28.587Z,6.40
2023-01-12T12:20:41.338Z,6.80
2023-01-12T12:21:47.970Z,6.79
2023-01-12T12:22:59.775Z,6.77
2023-01-12T12:24:36.312Z,6.25
2023-01-12T12:25:44.743Z,6.77
2023-01-12T12:26:51.347Z,5.14
2023-01-12T12:28:06.505Z,6.73
2023-01-12T12:29:15.954Z,6.68
2023-01-12T12:30:21.617Z,6.80
2023-01-12T12:31:40.213Z,6.48
2023-01-12T12:33:03.794Z,6.57
2023-01-12T12:34:17.504Z,5.51
2023-01-12T12:35:54.168Z,6.22
2023-01-12T12:37:17.778Z,5.87
2023-01-12T12:38:23.322Z,6.85
2023-01-12T12:39:35.297Z,6.94
2023-01-12T12:40:54.569Z,6.73
2023-01-12T12:42:40.670Z,6.90
2023-01-12T12:43:56.140Z,6.82
2023-01-12T12:45:19.165Z,7.00
2023-01-12T12:46:50.947Z,6.45
2023-01-12T12:48:15.205Z,6.78
2023-01-12T12:49:23.585Z,6.30
2023-01-12T12:50:26.422Z,6.28
2023-01-12T12:51:25.857Z,7.30
2023-01-12T12:52:30.254Z,5.81
2023-01-12T12:53:43.863Z,6.66
2023-01-12T12:54:41.157Z,6.79
2023-01-12T12:55:38.649Z,6.37
2023-01-12T12:56:37.068Z,5.83
2023-01-12T12:57:59.866Z,6.71
2023-01-12T12:58:58.649Z,6.87
2023-01-12T13:00:02.889Z,5.88
2023-01-12T13:01:19.648Z,6.61
2023-01-12T13:02:40.351Z,6.90
2023-01-12T13:03:41.128Z,6.64
2023-01-12T13:04:44.470Z,6.95
2023-01-12T13:05:46.781Z,7.05
2023-01-12T13:06:50.146Z,6.91
2023-01-12T13:07:52.936Z,6.73
2023-01-12T13:08:56.593Z,6.46
2023-01-12T13:10:10.085Z,6.95
2023-01-12T13:11:07.604Z,6.76
2023-01-12T13:12:04.300Z,6.96
2023-01-12T13:13:16.699Z,5.74
2023-01-12T13:14:26.270Z,6.43
2023-01-12T13:15:37.166Z,5.93
2023-01-12T13:16:34.138Z,6.22
2023-01-12T13:17:31.742Z,6.64
2023-01-12T13:18:49.664Z,6.56
2023-01-12T13:19:48.693Z,6.00
2023-01-12T13:20:53.683Z,6.66
2023-01-12T13:21:59.176Z,6.75
2023-01-12T13:22:56.695Z,5.54
2023-01-12T13:23:55.138Z,6.46
2023-01-12T13:24:53.989Z,6.52
2023-01-12T13:25:57.387Z,6.61
2023-01-12T13:27:01.860Z,6.60
2023-01-12T13:28:01.454Z,6.74
2023-01-12T13:29:23.038Z,6.71
2023-01-12T13:30:21.121Z,7.05
2023-01-12T13:31:32.372Z,6.77
2023-01-12T13:32:35.475Z,7.05
2023-01-12T13:33:32.586Z,5.95
2023-01-12T13:34:31.931Z,7.07
2023-01-12T13:35:36.860Z,6.73
2023-01-12T13:36:33.836Z,6.55
2023-01-12T13:37:52.003Z,6.66
2023-01-12T13:39:07.025Z,5.85
2023-01-12T13:40:22.373Z,6.68
2023-01-12T13:41:52.699Z,7.04
2023-01-12T13:43:09.143Z,6.08
2023-01-12T13:44:31.834Z,6.74
2023-01-12T13:45:28.873Z,6.56
2023-01-12T13:46:31.006Z,5.91
2023-01-12T13:47:32.996Z,5.20
2023-01-12T13:48:33.819Z,6.84
2023-01-12T13:49:43.674Z,5.92
2023-01-12T13:50:50.723Z,6.28
2023-01-12T13:52:02.731Z,6.76
2023-01-12T13:53:02.415Z,6.55
2023-01-12T13:54:02.455Z,6.56
2023-01-12T13:54:59.373Z,6.86
2023-01-12T13:56:00.054Z,5.61
2023-01-12T13:57:04.554Z,6.43
2023-01-12T13:58:19.274Z,6.46
2023-01-12T13:59:19.622Z,6.29
2023-01-12T14:00:22.231Z,6.00
2023-01-12T14:01:28.205Z,5.04
2023-01-12T14:02:30.278Z,5.59